createdAt,value
2018-02-15T00:00:35.253Z,96690.38
2018-02-15T00:03:58.616Z,96689.56
2018-02-15T00:07:22.002Z,96688.36
2018-02-15T00:10:45.303Z,96684.14
2018-02-15T00:14:08.608Z,96689.23
2018-02-15T00:17:32.694Z,96693.89
2018-02-15T00:20:56.755Z,96694.74
2018-02-15T00:24:20.135Z,96698.49
2018-02-15T00:27:43.460Z,96706.15
2018-02-15T00:31:07.519Z,96715.92
2018-02-15T00:34:30.866Z,96710.00
2018-02-15T00:37:54.997Z,96708.69
2018-02-15T00:41:22.387Z,96703.98
2018-02-15T00:44:45.734Z,96700.60
2018-02-15T00:48:09.086Z,96707.01
2018-02-15T00:51:32.415Z,96693.40
2018-02-15T00:54:56.741Z,96696.77
2018-02-15T00:58:20.136Z,96691.67
2018-02-15T01:01:43.505Z,96691.20
2018-02-15T01:05:06.842Z,96692.50
2018-02-15T01:08:30.931Z,96692.06
2018-02-15T01:11:54.250Z,96694.14
2018-02-15T01:15:17.666Z,96692.49
2018-02-15T01:18:40.951Z,96687.71
2018-02-15T01:22:04.342Z,96694.50
2018-02-15T01:25:27.619Z,96685.58
2018-02-15T01:28:51.707Z,96693.73
2018-02-15T01:32:15.833Z,96688.14
2018-02-15T01:35:39.100Z,96686.77
2018-02-15T01:39:02.442Z,96702.36
2018-02-15T01:42:26.490Z,96700.86
2018-02-15T01:45:49.801Z,96710.88
2018-02-15T01:49:13.094Z,96719.98
2018-02-15T01:52:36.481Z,96724.25
2018-02-15T01:56:00.595Z,96730.14
2018-02-15T01:59:23.975Z,96726.73
2018-02-15T02:02:47.254Z,96724.69
2018-02-15T02:06:11.309Z,96728.11
2018-02-15T02:09:34.609Z,96727.58
2018-02-15T02:12:58.652Z,96722.45
2018-02-15T02:16:22.706Z,96710.97
2018-02-15T02:19:46.040Z,96703.75
2018-02-15T02:23:09.308Z,96707.94
2018-02-15T02:26:33.442Z,96708.37
2018-02-15T02:29:56.699Z,96704.44
2018-02-15T02:33:20.080Z,96701.37
2018-02-15T02:36:43.456Z,96698.15
2018-02-15T02:40:06.722Z,96693.42
2018-02-15T02:43:30.834Z,96695.44
2018-02-15T02:46:54.113Z,96685.73
2018-02-15T02:50:17.382Z,96674.77
2018-02-15T02:53:40.771Z,96677.25
2018-02-15T02:57:04.815Z,96685.47
2018-02-15T03:00:28.937Z,96682.06
2018-02-15T03:03:52.258Z,96676.45
2018-02-15T03:07:15.634Z,96662.81
2018-02-15T03:10:38.898Z,96657.67
2018-02-15T03:14:02.956Z,96668.30
2018-02-15T03:17:26.251Z,96666.16
2018-02-15T03:20:49.569Z,96663.58
2018-02-15T03:24:12.841Z,96669.19
2018-02-15T03:27:36.971Z,96666.56
2018-02-15T03:31:00.246Z,96668.90
2018-02-15T03:34:23.518Z,96657.37
2018-02-15T03:37:47.579Z,96651.38
2018-02-15T03:41:10.872Z,96650.70
2018-02-15T03:44:34.912Z,96649.92
2018-02-15T03:47:58.974Z,96650.14
2018-02-15T03:51:22.246Z,96652.98
2018-02-15T03:54:45.528Z,96651.50
2018-02-15T03:58:08.892Z,96647.59
2018-02-15T04:01:32.263Z,96656.54
2018-02-15T04:04:55.587Z,96659.80
2018-02-15T04:08:18.852Z,96659.58
2018-02-15T04:11:42.903Z,96657.61
2018-02-15T04:15:06.955Z,96654.53
2018-02-15T04:18:30.269Z,96658.67
2018-02-15T04:21:53.524Z,96668.75
2018-02-15T04:25:17.626Z,96665.16
2018-02-15T04:28:40.929Z,96675.23
2018-02-15T04:32:05.031Z,96680.26
2018-02-15T04:35:28.373Z,96684.72
2018-02-15T04:38:51.643Z,96690.69
2018-02-15T04:42:14.957Z,96688.93
2018-02-15T04:45:38.241Z,96690.20
2018-02-15T04:49:02.313Z,96686.39
2018-02-15T04:52:25.607Z,96679.06
2018-02-15T04:55:49.637Z,96681.58
2018-02-15T04:59:13.688Z,96669.67
2018-02-15T05:02:37.078Z,96668.57
2018-02-15T05:06:01.128Z,96677.41
2018-02-15T05:09:25.180Z,96672.83
2018-02-15T05:12:48.451Z,96669.97
2018-02-15T05:16:11.719Z,96682.70
2018-02-15T05:19:35.015Z,96683.30
2018-02-15T05:22:59.139Z,96688.13
2018-02-15T05:26:22.432Z,96686.63
2018-02-15T05:29:45.711Z,96685.05
2018-02-15T05:33:09.078Z,96682.03
2018-02-15T05:36:32.414Z,96688.49
2018-02-15T05:39:55.688Z,96695.33
2018-02-15T05:43:19.751Z,96697.86
2018-02-15T05:46:43.039Z,96689.68
2018-02-15T05:50:06.409Z,96687.39
2018-02-15T05:53:29.779Z,96697.86
2018-02-15T05:56:53.057Z,96694.16
2018-02-15T06:00:17.145Z,96700.05
2018-02-15T06:03:41.201Z,96697.59
2018-02-15T06:07:04.495Z,96700.63
2018-02-15T06:10:28.623Z,96702.99
2018-02-15T06:13:51.903Z,96712.02
2018-02-15T06:17:15.978Z,96717.58
2018-02-15T06:20:39.246Z,96720.97
2018-02-15T06:24:02.552Z,96718.73
2018-02-15T06:27:25.885Z,96725.20
2018-02-15T06:30:49.160Z,96726.63
2018-02-15T06:34:12.472Z,96724.44
2018-02-15T06:37:35.756Z,96724.67
2018-02-15T06:40:59.812Z,96733.87
2018-02-15T06:44:23.103Z,96740.36
2018-02-15T06:47:47.188Z,96745.34
2018-02-15T06:51:11.246Z,96742.95
2018-02-15T06:54:35.361Z,96738.04
2018-02-15T06:57:58.731Z,96735.80
2018-02-15T07:01:22.021Z,96740.99
2018-02-15T07:04:45.295Z,96741.84
2018-02-15T07:08:08.925Z,96742.47
2018-02-15T07:11:32.332Z,96743.95
2018-02-15T07:14:56.496Z,96741.65
2018-02-15T07:18:19.911Z,96735.70
2018-02-15T07:21:43.332Z,96745.86
2018-02-15T07:33:06.530Z,96749.10
2018-02-15T07:36:31.339Z,96753.89
2018-02-15T07:39:54.746Z,96758.72
2018-02-15T07:43:18.832Z,96756.90
2018-02-15T07:46:42.994Z,96752.86
2018-02-15T07:50:06.334Z,96750.69
2018-02-15T07:53:29.734Z,96746.63
2018-02-15T07:56:53.934Z,96749.76
2018-02-15T08:00:19.446Z,96746.73
2018-02-15T08:03:44.574Z,96745.18
2018-02-15T08:15:18.057Z,96757.14
2018-02-15T08:18:43.618Z,96756.92
2018-02-15T08:22:10.678Z,96759.97
2018-02-15T08:25:34.793Z,96763.91
2018-02-15T08:28:58.241Z,96757.85
2018-02-15T08:32:22.439Z,96762.50
2018-02-15T08:35:45.831Z,96771.08
2018-02-15T08:39:09.345Z,96770.01
2018-02-15T08:42:33.068Z,96779.05
2018-02-15T08:45:56.390Z,96780.07
2018-02-15T08:49:19.845Z,96783.34
2018-02-15T08:52:43.532Z,96777.55
2018-02-15T08:56:06.996Z,96779.99
2018-02-15T08:59:31.210Z,96782.81
2018-02-15T09:02:54.535Z,96776.28
2018-02-15T09:06:17.860Z,96774.77
2018-02-15T09:09:42.030Z,96784.59
2018-02-15T09:13:06.223Z,96778.14
2018-02-15T09:16:29.525Z,96781.95
2018-02-15T09:19:55.187Z,96784.32
2018-02-15T09:23:18.533Z,96783.42
2018-02-15T09:26:44.098Z,96785.52
2018-02-15T09:30:08.187Z,96780.25
2018-02-15T09:33:32.295Z,96785.04
2018-02-15T09:37:00.156Z,96773.20
2018-02-15T09:40:24.234Z,96774.97
2018-02-15T09:43:48.326Z,96786.88
2018-02-15T09:47:12.411Z,96781.84
2018-02-15T09:50:36.594Z,96788.00
2018-02-15T09:54:00.661Z,96791.98
2018-02-15T09:57:23.977Z,96796.38
2018-02-15T10:00:47.268Z,96797.41
2018-02-15T10:04:12.316Z,96798.89
2018-02-15T10:07:36.359Z,96804.59
2018-02-15T10:11:00.580Z,96800.34
2018-02-15T10:14:23.903Z,96816.21
2018-02-15T10:17:48.254Z,96827.30
2018-02-15T10:21:11.624Z,96816.73
2018-02-15T10:24:34.945Z,96818.17
2018-02-15T10:27:59.028Z,96814.36
2018-02-15T10:31:23.268Z,96825.34
2018-02-15T10:34:46.529Z,96818.36
2018-02-15T10:38:09.863Z,96816.67
2018-02-15T10:41:33.916Z,96813.97
2018-02-15T10:44:57.206Z,96824.27
2018-02-15T10:48:20.536Z,96817.95
2018-02-15T10:51:44.668Z,96823.83
2018-02-15T10:55:08.036Z,96828.09
2018-02-15T10:58:32.516Z,96831.41
2018-02-15T11:02:01.313Z,96831.22
2018-02-15T11:05:29.523Z,96830.19
2018-02-15T11:08:53.661Z,96819.01
2018-02-15T11:12:17.932Z,96823.18
2018-02-15T11:15:41.290Z,96823.42
2018-02-15T11:19:04.622Z,96822.22
2018-02-15T11:22:28.804Z,96819.74
2018-02-15T11:25:52.206Z,96827.48
2018-02-15T11:29:15.602Z,96821.57
2018-02-15T11:32:38.997Z,96828.14
2018-02-15T11:36:02.316Z,96828.23
2018-02-15T11:39:26.349Z,96831.92
2018-02-15T11:42:50.400Z,96837.31
2018-02-15T11:46:13.680Z,96839.39
2018-02-15T11:49:37.015Z,96830.84
2018-02-15T11:53:00.294Z,96819.77
2018-02-15T11:56:24.325Z,96825.22
2018-02-15T11:59:48.448Z,96844.52
2018-02-15T12:03:11.735Z,96832.16
2018-02-15T12:06:35.799Z,96833.30
2018-02-15T12:09:59.105Z,96836.66
2018-02-15T12:13:22.400Z,96837.05
2018-02-15T12:16:45.726Z,96836.09
2018-02-15T12:20:09.799Z,96836.21
2018-02-15T12:23:33.088Z,96850.02
2018-02-15T12:26:57.155Z,96845.86
2018-02-15T12:30:20.435Z,96849.69
2018-02-15T12:33:44.477Z,96841.70
2018-02-15T12:37:08.529Z,96835.41
2018-02-15T12:40:31.842Z,96843.16
2018-02-15T12:43:55.108Z,96836.39
2018-02-15T12:47:18.370Z,96836.89
2018-02-15T12:50:42.546Z,96838.27
2018-02-15T12:54:06.047Z,96841.22
2018-02-15T12:57:29.318Z,96835.88
2018-02-15T13:00:52.601Z,96828.95
2018-02-15T13:04:15.927Z,96839.20
2018-02-15T13:07:40.059Z,96825.79
2018-02-15T13:11:03.376Z,96832.79
2018-02-15T13:14:26.671Z,96831.02
2018-02-15T13:17:50.020Z,96824.48
2018-02-15T13:21:13.306Z,96838.63
2018-02-15T13:24:36.610Z,96830.87
2018-02-15T13:28:18.558Z,96847.69
2018-02-15T13:31:41.830Z,96843.58
2018-02-15T13:35:05.243Z,96848.28
2018-02-15T13:38:29.333Z,96849.27
2018-02-15T13:41:52.629Z,96859.20
2018-02-15T13:45:15.962Z,96860.61
2018-02-15T13:48:39.251Z,96861.67
2018-02-15T13:52:03.291Z,96862.16
2018-02-15T13:55:27.416Z,96853.61
2018-02-15T13:58:50.685Z,96865.76
2018-02-15T14:02:14.711Z,96855.14
2018-02-15T14:05:38.037Z,96853.05
2018-02-15T14:09:01.330Z,96846.63
2018-02-15T14:12:25.444Z,96837.88
2018-02-15T14:15:48.720Z,96847.38
2018-02-15T14:19:12.840Z,96856.48
2018-02-15T14:22:36.097Z,96859.84
2018-02-15T14:25:59.359Z,96860.22
2018-02-15T14:29:22.630Z,96873.45
2018-02-15T14:32:45.929Z,96879.51
2018-02-15T14:36:10.008Z,96879.68
2018-02-15T14:39:33.302Z,96877.30
2018-02-15T14:42:57.412Z,96877.09
2018-02-15T14:46:20.775Z,96876.15
2018-02-15T14:49:44.028Z,96862.61
2018-02-15T14:53:07.333Z,96868.70
2018-02-15T14:56:31.461Z,96859.80
2018-02-15T14:59:54.779Z,96863.41
2018-02-15T15:03:19.148Z,96864.81
2018-02-15T15:06:43.186Z,96870.05
2018-02-15T15:10:07.275Z,96863.27
2018-02-15T15:13:31.516Z,96863.59
2018-02-15T15:16:55.680Z,96861.63
2018-02-15T15:20:19.777Z,96870.16
2018-02-15T15:23:43.143Z,96873.42
2018-02-15T15:27:07.319Z,96877.00
2018-02-15T15:30:30.661Z,96872.52
2018-02-15T15:33:53.996Z,96889.74
2018-02-15T15:37:17.300Z,96883.69
2018-02-15T15:40:41.416Z,96879.58
2018-02-15T15:44:05.527Z,96890.34
2018-02-15T15:47:29.636Z,96895.14
2018-02-15T15:50:53.067Z,96897.85
2018-02-15T15:54:17.235Z,96891.08
2018-02-15T15:57:40.772Z,96894.02
2018-02-15T16:01:04.137Z,96895.73
2018-02-15T16:04:27.435Z,96889.20
2018-02-15T16:07:51.483Z,96895.72
2018-02-15T16:11:14.761Z,96900.26
2018-02-15T16:14:38.139Z,96885.73
2018-02-15T16:18:01.399Z,96897.75
2018-02-15T16:21:24.690Z,96905.44
2018-02-15T16:24:49.849Z,96898.14
2018-02-15T16:28:13.974Z,96891.27
2018-02-15T16:31:37.290Z,96901.28
2018-02-15T16:35:00.615Z,96899.44
2018-02-15T16:38:23.935Z,96903.27
2018-02-15T16:41:47.239Z,96911.13
2018-02-15T16:45:10.526Z,96917.15
2018-02-15T16:48:34.630Z,96923.80
2018-02-15T16:51:58.068Z,96921.53
2018-02-15T16:55:21.518Z,96926.41
2018-02-15T16:58:45.641Z,96906.44
2018-02-15T17:02:09.740Z,96910.66
2018-02-15T17:05:33.865Z,96925.67
2018-02-15T17:08:57.159Z,96917.28
2018-02-15T17:12:20.427Z,96918.02
2018-02-15T17:15:43.750Z,96920.78
2018-02-15T17:19:07.099Z,96919.46
2018-02-15T17:22:31.150Z,96940.59
2018-02-15T17:25:54.434Z,96942.95
2018-02-15T17:29:17.762Z,96943.31
2018-02-15T17:32:41.058Z,96936.66
2018-02-15T17:36:04.340Z,96941.38
2018-02-15T17:39:27.618Z,96940.71
2018-02-15T17:42:50.915Z,96943.54
2018-02-15T17:46:16.776Z,96939.58
2018-02-15T17:49:49.866Z,96945.41
2018-02-15T17:53:13.921Z,96948.18
2018-02-15T17:56:37.260Z,96958.78
2018-02-15T18:00:00.590Z,96943.20
2018-02-15T18:03:24.722Z,96956.88
2018-02-15T18:06:48.093Z,96969.38
2018-02-15T18:10:11.354Z,96969.91
2018-02-15T18:13:34.684Z,96974.30
2018-02-15T18:16:57.990Z,96965.69
2018-02-15T18:20:21.270Z,96974.19
2018-02-15T18:23:45.516Z,96977.17
2018-02-15T18:27:09.712Z,96965.80
2018-02-15T18:30:33.766Z,96973.82
2018-02-15T18:33:57.159Z,96967.83
2018-02-15T18:37:21.376Z,96972.65
2018-02-15T18:40:44.866Z,96965.13
2018-02-15T18:44:08.167Z,96976.81
2018-02-15T18:47:32.530Z,96970.50
2018-02-15T18:50:55.846Z,96980.86
2018-02-15T18:54:19.227Z,96976.97
2018-02-15T18:57:44.824Z,96978.89
2018-02-15T19:01:08.099Z,96983.00
2018-02-15T19:04:32.298Z,96985.17
2018-02-15T19:07:55.610Z,96967.08
2018-02-15T19:11:19.664Z,96968.52
2018-02-15T19:14:43.733Z,96980.06
2018-02-15T19:18:07.046Z,96976.27
2018-02-15T19:21:30.316Z,96965.70
2018-02-15T19:24:53.625Z,96972.64
2018-02-15T19:28:16.896Z,96963.60
2018-02-15T19:31:40.286Z,96965.05
2018-02-15T19:35:03.590Z,96972.80
2018-02-15T19:38:26.870Z,96960.56
2018-02-15T19:41:50.191Z,96961.42
2018-02-15T19:45:13.546Z,96976.80
2018-02-15T19:48:36.827Z,96962.28
2018-02-15T19:52:00.133Z,96961.71
2018-02-15T19:55:23.415Z,96958.22
2018-02-15T19:58:47.491Z,96962.02
2018-02-15T20:02:10.763Z,96958.27
2018-02-15T20:05:34.191Z,96959.12
2018-02-15T20:08:58.255Z,96948.66
2018-02-15T20:12:21.618Z,96951.19
2018-02-15T20:15:47.688Z,96963.56
2018-02-15T20:19:11.190Z,96967.87
2018-02-15T20:22:35.259Z,96958.03
2018-02-15T20:26:04.832Z,96958.89
2018-02-15T20:29:28.948Z,96955.75
2018-02-15T20:32:52.286Z,96954.00
2018-02-15T20:36:16.452Z,96955.11
2018-02-15T20:39:45.248Z,96949.86
2018-02-15T20:43:08.700Z,96953.66
2018-02-15T20:46:32.012Z,96960.98
2018-02-15T20:50:01.918Z,96941.48
2018-02-15T20:53:30.794Z,96958.33
2018-02-15T20:56:54.132Z,96953.47
2018-02-15T21:00:18.269Z,96944.06
2018-02-15T21:03:41.542Z,96948.28
2018-02-15T21:07:04.832Z,96948.47
2018-02-15T21:10:28.902Z,96950.30
2018-02-15T21:13:53.034Z,96945.02
2018-02-15T21:17:16.369Z,96946.72
2018-02-15T21:20:40.496Z,96955.37
2018-02-15T21:24:03.775Z,96950.38
2018-02-15T21:27:27.832Z,96957.48
2018-02-15T21:30:51.182Z,96959.89
2018-02-15T21:34:14.462Z,96966.42
2018-02-15T21:37:37.901Z,96969.58
2018-02-15T21:41:01.240Z,96961.70
2018-02-15T21:44:24.698Z,96963.54
2018-02-15T21:47:47.986Z,96969.89
2018-02-15T21:51:12.026Z,96976.31
2018-02-15T21:54:35.308Z,96970.53
2018-02-15T21:57:58.584Z,96967.03
2018-02-15T22:01:21.868Z,96967.87
2018-02-15T22:04:45.931Z,96983.80
2018-02-15T22:08:09.232Z,96972.73
2018-02-15T22:11:33.285Z,96956.68
2018-02-15T22:14:56.579Z,96962.11
2018-02-15T22:18:20.700Z,96962.97
2018-02-15T22:21:43.970Z,96957.47
2018-02-15T22:25:08.142Z,96945.93
2018-02-15T22:28:31.408Z,96950.39
2018-02-15T22:31:54.676Z,96956.05
2018-02-15T22:35:17.937Z,96960.77
2018-02-15T22:38:41.252Z,96970.54
2018-02-15T22:42:05.379Z,96969.36
2018-02-15T22:45:29.506Z,96971.29
2018-02-15T22:48:52.825Z,96955.81
2018-02-15T22:52:16.183Z,96967.47
2018-02-15T22:55:39.453Z,96952.75
2018-02-15T22:59:03.051Z,96963.09
2018-02-15T23:02:27.132Z,96947.98
2018-02-15T23:05:51.196Z,96954.84
2018-02-15T23:09:14.585Z,96964.36
2018-02-15T23:12:37.902Z,96968.75
2018-02-15T23:16:01.176Z,96974.48
2018-02-15T23:19:24.496Z,96975.56
2018-02-15T23:22:48.566Z,96964.90
2018-02-15T23:26:11.842Z,96949.25
2018-02-15T23:29:35.222Z,96950.98
2018-02-15T23:32:59.262Z,96953.48
2018-02-15T23:36:23.321Z,96954.50
2018-02-15T23:39:46.602Z,96957.20
2018-02-15T23:43:09.926Z,96963.34
2018-02-15T23:46:33.203Z,96970.30
2018-02-15T23:49:57.274Z,96970.47
2018-02-15T23:53:20.544Z,96973.47
2018-02-15T23:56:43.879Z,96971.16
